Decoded Metar for EHVL (VLIELAND ISLAND in NETHERLANDS) (IATA:N/A) | Meteo·Mobile Aviation Weather
aviador You're here:

EHVL Decoded Metar

VLIELAND ISLAND in NETHERLANDS
Report Time2019-07-22 15:25:00
UTC Time2019-07-22 15:54:23
Flight Rules vfr VFR
Wind230° at 20 kt
Visibility9999 m
Phenomena:N/A
Clouds:Few 210 Hf
Expected CloudBase > 1,600 ft AGL from Temp-Dew spread
CeilingNone
Temp21°C (ISA +6)
Dew Point17°C (78% RH)
AAT16.2°C
QNH1021 hPa
Density Alt709 ft
Elevation16 ft
Report Wrong Elevation
Raw Report
EHVL 221525Z AUTO 23020KT 9999 FEW210 21/17 Q1021 BLU=

Extra information for EHVL:More info

Metar Taf Metar & Taf Last 4 Metars F.Rules Stats Wind Profile Meteogram Temp Stats Airport Information Weather charts Add Link Nearby VenuesMetar ALERT Operation Metar Decoded Social comments